createdAt,value
2024-02-21T00:01:11.310Z,-0.3
2024-02-21T00:03:12.067Z,-0.2
2024-02-21T00:06:12.617Z,-0.1
2024-02-21T00:08:13.249Z,-0.1
2024-02-21T00:11:14.244Z,0.1
2024-02-21T00:13:15.294Z,0.1
2024-02-21T00:16:16.052Z,0.1
2024-02-21T00:18:16.754Z,0.2
2024-02-21T00:21:17.679Z,0.2
2024-02-21T00:24:18.219Z,0.2
2024-02-21T00:26:18.802Z,0.2
2024-02-21T00:31:19.406Z,0.3
2024-02-21T00:34:20.216Z,0.3
2024-02-21T00:36:21.316Z,0.3
2024-02-21T00:39:21.968Z,0.3
2024-02-21T00:41:22.726Z,0.3
2024-02-21T00:44:23.307Z,0.3
2024-02-21T00:46:24.089Z,0.3
2024-02-21T00:49:24.806Z,0.3
2024-02-21T00:51:25.524Z,0.3
2024-02-21T00:54:28.409Z,0.3
2024-02-21T00:56:51.106Z,0.3
2024-02-21T00:59:51.644Z,0.4
2024-02-21T01:01:52.257Z,0.4
2024-02-21T01:04:53.200Z,0.4
2024-02-21T01:06:53.881Z,0.4
2024-02-21T01:11:54.521Z,0.5
2024-02-21T01:14:55.422Z,0.5
2024-02-21T01:16:56.267Z,0.5
2024-02-21T01:19:57.313Z,0.5
2024-02-21T01:21:58.048Z,0.5
2024-02-21T01:24:58.613Z,0.5
2024-02-21T01:26:59.153Z,0.5
2024-02-21T01:29:59.769Z,0.6
2024-02-21T01:32:00.505Z,0.6
2024-02-21T01:35:01.277Z,0.6
2024-02-21T01:38:02.266Z,0.6
2024-02-21T01:40:03.033Z,0.6
2024-02-21T01:43:03.584Z,0.6
2024-02-21T01:45:04.158Z,0.6
2024-02-21T01:48:04.769Z,0.5
2024-02-21T01:53:05.558Z,0.6
2024-02-21T01:55:06.134Z,0.6
2024-02-21T01:58:07.019Z,0.6
2024-02-21T02:00:07.616Z,0.5
2024-02-21T02:03:08.285Z,0.5
2024-02-21T02:05:09.008Z,0.5
2024-02-21T02:08:09.724Z,0.5
2024-02-21T02:11:10.558Z,0.5
2024-02-21T02:13:11.486Z,0.5
2024-02-21T02:16:12.318Z,0.5
2024-02-21T02:18:13.018Z,0.5
2024-02-21T02:21:13.818Z,0.5
2024-02-21T02:23:14.352Z,0.5
2024-02-21T02:26:14.899Z,0.5
2024-02-21T02:28:15.447Z,0.5
2024-02-21T02:33:16.092Z,0.5
2024-02-21T02:36:16.913Z,0.5
2024-02-21T02:38:17.461Z,0.5
2024-02-21T02:41:18.001Z,0.5
2024-02-21T02:43:18.579Z,0.5
2024-02-21T02:46:19.264Z,0.5
2024-02-21T02:48:19.996Z,0.5
2024-02-21T02:51:20.849Z,0.5
2024-02-21T02:53:21.483Z,0.5
2024-02-21T02:56:22.139Z,0.5
2024-02-21T02:58:22.731Z,0.5
2024-02-21T03:01:23.607Z,0.5
2024-02-21T03:04:24.570Z,0.5
2024-02-21T03:06:25.927Z,0.5
2024-02-21T03:09:26.695Z,0.5
2024-02-21T03:14:27.252Z,0.5
2024-02-21T03:16:27.838Z,0.5
2024-02-21T03:19:28.579Z,0.5
2024-02-21T03:21:29.429Z,0.5
2024-02-21T03:24:30.037Z,0.5
2024-02-21T03:26:30.574Z,0.5
2024-02-21T03:29:31.225Z,0.4
2024-02-21T03:31:32.235Z,0.4
2024-02-21T03:34:33.742Z,0.4
2024-02-21T03:37:34.482Z,0.3
2024-02-21T03:39:35.088Z,0.3
2024-02-21T03:42:35.659Z,0.4
2024-02-21T03:44:36.218Z,0.3
2024-02-21T03:47:36.817Z,0.3
2024-02-21T03:49:37.553Z,0.4
2024-02-21T03:54:38.374Z,0.4
2024-02-21T03:57:39.044Z,0.4
2024-02-21T03:59:41.401Z,0.4
2024-02-21T04:02:45.471Z,0.5
2024-02-21T04:04:46.110Z,0.5
2024-02-21T04:07:46.839Z,0.4
2024-02-21T04:09:47.635Z,0.5
2024-02-21T04:12:48.176Z,0.5
2024-02-21T04:14:48.724Z,0.5
2024-02-21T04:17:49.316Z,0.5
2024-02-21T04:19:50.099Z,0.5
2024-02-21T04:22:51.062Z,0.5
2024-02-21T04:27:51.738Z,0.6
2024-02-21T04:30:52.278Z,0.6
2024-02-21T04:35:52.815Z,0.6
2024-02-21T04:37:53.401Z,0.6
2024-02-21T04:40:54.152Z,0.6
2024-02-21T04:42:54.983Z,0.6
2024-02-21T04:45:55.542Z,0.6
2024-02-21T04:47:56.137Z,0.6
2024-02-21T04:50:56.817Z,0.6
2024-02-21T04:52:57.370Z,0.5
2024-02-21T04:55:58.407Z,0.5
2024-02-21T04:57:59.076Z,0.5
2024-02-21T05:00:59.660Z,0.5
2024-02-21T05:04:00.428Z,0.4
2024-02-21T05:06:01.307Z,0.4
2024-02-21T05:09:02.109Z,0.4
2024-02-21T05:11:02.867Z,0.3
2024-02-21T05:16:03.659Z,0.3
2024-02-21T05:19:04.235Z,0.3
2024-02-21T05:21:05.159Z,0.4
2024-02-21T05:24:05.738Z,0.4
2024-02-21T05:26:06.311Z,0.4
2024-02-21T05:29:07.167Z,0.4
2024-02-21T05:31:07.892Z,0.4
2024-02-21T05:34:08.441Z,0.5
2024-02-21T05:36:09.164Z,0.4
2024-02-21T05:39:09.702Z,0.5
2024-02-21T05:41:12.186Z,0.5
2024-02-21T05:44:13.480Z,0.5
2024-02-21T05:46:14.134Z,0.4
2024-02-21T05:49:14.902Z,0.4
2024-02-21T05:51:15.871Z,0.4
2024-02-21T05:57:16.551Z,0.3
2024-02-21T05:59:17.145Z,0.3
2024-02-21T06:02:17.766Z,0.2
2024-02-21T06:04:18.656Z,0.3
2024-02-21T06:07:19.549Z,0.2
2024-02-21T06:09:20.559Z,0.2
2024-02-21T06:12:21.185Z,0.1
2024-02-21T06:14:21.966Z,0.1
2024-02-21T06:17:22.561Z,0.1
2024-02-21T06:19:23.227Z,0.0
2024-02-21T06:22:24.179Z,0.1
2024-02-21T06:24:24.904Z,0.1
2024-02-21T06:27:25.507Z,0.1
2024-02-21T06:30:26.280Z,0.1
2024-02-21T06:32:26.854Z,0.2
2024-02-21T06:37:27.631Z,0.2
2024-02-21T06:40:28.394Z,0.2
2024-02-21T06:42:29.046Z,0.2
2024-02-21T06:45:29.626Z,0.1
2024-02-21T06:47:30.229Z,0.1
2024-02-21T06:50:31.019Z,0.0
2024-02-21T06:52:31.643Z,0.0
2024-02-21T06:55:32.344Z,-0.1
2024-02-21T06:57:33.025Z,-0.1
2024-02-21T07:00:33.629Z,-0.1
2024-02-21T07:02:34.260Z,-0.1
2024-02-21T07:05:35.149Z,-0.1
2024-02-21T07:07:36.594Z,0.0
2024-02-21T07:10:38.101Z,0.0
2024-02-21T07:12:38.718Z,0.0
2024-02-21T07:18:39.312Z,0.0
2024-02-21T07:20:40.048Z,0.0
2024-02-21T07:23:40.617Z,0.0
2024-02-21T07:25:41.290Z,0.1
2024-02-21T07:28:42.112Z,0.1
2024-02-21T07:30:43.011Z,0.1
2024-02-21T07:33:43.730Z,0.3
2024-02-21T07:35:44.561Z,0.3
2024-02-21T07:38:45.243Z,0.4
2024-02-21T07:40:45.821Z,0.6
2024-02-21T07:43:46.566Z,0.7
2024-02-21T07:45:47.392Z,0.7
2024-02-21T07:48:47.998Z,0.8
2024-02-21T07:50:48.726Z,0.9
2024-02-21T07:53:49.363Z,1.0
2024-02-21T07:58:50.254Z,1.1
2024-02-21T08:01:51.006Z,1.3
2024-02-21T08:03:51.694Z,1.3
2024-02-21T08:06:52.394Z,1.5
2024-02-21T08:08:52.932Z,1.5
2024-02-21T08:11:53.524Z,1.7
2024-02-21T08:13:54.327Z,1.8
2024-02-21T08:16:55.082Z,1.9
2024-02-21T08:18:55.790Z,1.9
2024-02-21T08:21:56.563Z,2.0
2024-02-21T08:23:57.509Z,2.2
2024-02-21T08:26:58.073Z,2.2
2024-02-21T08:28:58.655Z,2.3
2024-02-21T08:31:59.556Z,2.3
2024-02-21T08:34:00.544Z,2.3
2024-02-21T08:39:01.504Z,2.5
2024-02-21T08:42:02.081Z,2.6
2024-02-21T08:44:02.661Z,2.5
2024-02-21T08:47:03.421Z,2.7
2024-02-21T08:50:08.660Z,2.7
2024-02-21T08:52:29.875Z,2.9
2024-02-21T08:57:30.617Z,3.1
2024-02-21T08:59:31.172Z,3.2
2024-02-21T09:02:31.916Z,3.3
2024-02-21T09:04:32.722Z,3.5
2024-02-21T09:07:34.250Z,3.5
2024-02-21T09:09:34.946Z,3.5
2024-02-21T09:12:35.484Z,3.5
2024-02-21T09:14:36.082Z,3.6
2024-02-21T09:20:36.690Z,3.7
2024-02-21T09:22:37.350Z,3.8
2024-02-21T09:25:38.051Z,3.9
2024-02-21T09:27:38.655Z,4.0
2024-02-21T09:30:39.255Z,4.2
2024-02-21T09:32:40.011Z,4.2
2024-02-21T09:35:41.355Z,4.3
2024-02-21T09:37:42.089Z,4.3
2024-02-21T09:40:42.798Z,4.3
2024-02-21T09:42:43.454Z,4.5
2024-02-21T09:45:44.008Z,4.5
2024-02-21T09:47:44.631Z,4.6
2024-02-21T09:50:45.347Z,4.6
2024-02-21T09:52:45.950Z,4.8
2024-02-21T09:55:46.786Z,4.9
2024-02-21T10:00:47.670Z,5.1
2024-02-21T10:03:48.335Z,5.2
2024-02-21T10:05:49.064Z,5.2
2024-02-21T10:08:49.811Z,5.2
2024-02-21T10:10:50.399Z,5.3
2024-02-21T10:13:51.158Z,5.4
2024-02-21T10:15:52.349Z,5.6
2024-02-21T10:18:52.937Z,5.6
2024-02-21T10:20:53.604Z,5.8
2024-02-21T10:23:54.175Z,5.9
2024-02-21T10:25:54.799Z,6.0
2024-02-21T10:28:55.555Z,6.1
2024-02-21T10:31:56.642Z,6.2
2024-02-21T10:33:57.408Z,6.3
2024-02-21T10:35:58.470Z,6.4
2024-02-21T10:40:59.106Z,6.7
2024-02-21T10:44:00.044Z,6.7
2024-02-21T10:47:00.885Z,6.8
2024-02-21T10:49:01.881Z,6.8
2024-02-21T10:52:02.778Z,7.0
2024-02-21T10:54:03.344Z,7.2
2024-02-21T10:57:04.201Z,7.3
2024-02-21T10:59:04.998Z,7.4
2024-02-21T11:02:06.210Z,7.4
2024-02-21T11:04:07.947Z,7.3
2024-02-21T11:07:10.732Z,7.5
2024-02-21T11:09:12.801Z,7.5
2024-02-21T11:12:14.525Z,7.7
2024-02-21T11:14:15.302Z,7.7
2024-02-21T11:17:15.873Z,7.9
2024-02-21T11:22:16.647Z,7.9
2024-02-21T11:24:17.299Z,8.0
2024-02-21T11:27:17.855Z,8.2
2024-02-21T11:29:18.409Z,8.2
2024-02-21T11:32:18.980Z,8.1
2024-02-21T11:35:19.546Z,8.2
2024-02-21T11:37:20.345Z,8.4
2024-02-21T11:40:21.021Z,8.4
2024-02-21T11:42:21.759Z,8.4
2024-02-21T11:45:22.347Z,8.4
2024-02-21T11:47:23.327Z,8.4
2024-02-21T11:50:24.065Z,8.5
2024-02-21T11:52:24.892Z,8.5
2024-02-21T11:55:25.656Z,8.6
2024-02-21T11:57:26.415Z,8.8
2024-02-21T12:02:27.012Z,9.2
2024-02-21T12:05:27.783Z,9.1
2024-02-21T12:08:28.799Z,9.0
2024-02-21T12:10:29.577Z,9.0
2024-02-21T12:13:30.448Z,9.0
2024-02-21T12:15:31.079Z,9.0
2024-02-21T12:18:31.790Z,9.0
2024-02-21T12:20:32.570Z,9.1
2024-02-21T12:23:33.090Z,9.3
2024-02-21T12:25:33.692Z,9.5
2024-02-21T12:28:34.406Z,9.6
2024-02-21T12:30:35.125Z,9.5
2024-02-21T12:33:35.710Z,9.6
2024-02-21T12:35:36.462Z,9.9
2024-02-21T12:38:37.286Z,9.8
2024-02-21T12:43:37.882Z,9.9
2024-02-21T12:45:38.513Z,9.7
2024-02-21T12:48:39.058Z,9.8
2024-02-21T12:50:39.752Z,9.9
2024-02-21T12:53:40.763Z,9.9
2024-02-21T12:56:41.425Z,10.0
2024-02-21T12:58:42.017Z,10.1
2024-02-21T13:01:42.754Z,10.1
2024-02-21T13:03:43.638Z,10.0
2024-02-21T13:06:44.289Z,10.2
2024-02-21T13:08:44.856Z,10.3
2024-02-21T13:11:45.519Z,10.2
2024-02-21T13:13:46.504Z,10.3
2024-02-21T13:16:47.349Z,10.4
2024-02-21T13:18:48.350Z,10.2
2024-02-21T13:23:49.575Z,10.2
2024-02-21T13:26:50.142Z,10.0
2024-02-21T13:28:50.770Z,10.2
2024-02-21T13:31:51.604Z,10.4
2024-02-21T13:34:52.325Z,10.3
2024-02-21T13:36:53.313Z,10.4
2024-02-21T13:38:53.919Z,10.4
2024-02-21T13:41:54.544Z,10.4
2024-02-21T13:44:55.176Z,10.4
2024-02-21T13:46:55.785Z,10.1
2024-02-21T13:49:56.558Z,10.3
2024-02-21T13:51:57.283Z,10.3
2024-02-21T13:54:57.802Z,10.3
2024-02-21T13:56:58.433Z,10.4
2024-02-21T13:59:58.979Z,10.3
2024-02-21T14:04:59.579Z,10.5
2024-02-21T14:07:00.471Z,10.5
2024-02-21T14:10:01.278Z,10.6
2024-02-21T14:12:01.973Z,10.6
2024-02-21T14:15:02.751Z,10.5
2024-02-21T14:17:03.359Z,10.7
2024-02-21T14:20:04.329Z,10.7
2024-02-21T14:23:04.979Z,10.7
2024-02-21T14:25:06.215Z,10.5
2024-02-21T14:28:06.783Z,10.3
2024-02-21T14:30:07.398Z,10.4
2024-02-21T14:33:08.042Z,10.3
2024-02-21T14:35:08.900Z,10.4
2024-02-21T14:38:09.876Z,10.4
2024-02-21T14:40:10.647Z,10.4
2024-02-21T14:45:11.221Z,10.4
2024-02-21T14:48:11.842Z,10.4
2024-02-21T14:50:12.836Z,10.2
2024-02-21T14:53:13.661Z,10.2
2024-02-21T14:56:14.477Z,10.1
2024-02-21T14:58:15.132Z,10.1
2024-02-21T15:01:15.727Z,10.1
2024-02-21T15:03:16.386Z,10.0
2024-02-21T15:06:16.956Z,10.1
2024-02-21T15:08:17.750Z,10.0
2024-02-21T15:11:18.741Z,10.1
2024-02-21T15:13:19.877Z,10.0
2024-02-21T15:16:20.671Z,10.0
2024-02-21T15:21:21.328Z,9.9
2024-02-21T15:26:21.860Z,9.9
2024-02-21T15:28:22.479Z,9.8
2024-02-21T15:31:23.500Z,9.7
2024-02-21T15:33:24.443Z,9.7
2024-02-21T15:36:25.372Z,9.6
2024-02-21T15:39:26.157Z,9.6
2024-02-21T15:41:26.752Z,9.5
2024-02-21T15:44:27.316Z,9.5
2024-02-21T15:46:27.927Z,9.4
2024-02-21T15:49:28.854Z,9.4
2024-02-21T15:51:30.217Z,9.3
2024-02-21T15:54:30.988Z,9.2
2024-02-21T15:56:31.583Z,9.2
2024-02-21T15:59:32.159Z,9.2
2024-02-21T16:01:32.770Z,9.1
2024-02-21T16:06:33.599Z,9.0
2024-02-21T16:09:34.342Z,8.9
2024-02-21T16:11:34.964Z,8.9
2024-02-21T16:14:36.095Z,8.8
2024-02-21T16:17:36.645Z,8.8
2024-02-21T16:19:37.390Z,8.7
2024-02-21T16:22:38.364Z,8.6
2024-02-21T16:24:39.081Z,8.5
2024-02-21T16:27:39.617Z,8.3
2024-02-21T16:29:40.175Z,8.2
2024-02-21T16:32:40.729Z,8.1
2024-02-21T16:34:41.315Z,7.9
2024-02-21T16:37:42.202Z,7.8
2024-02-21T16:39:42.946Z,7.7
2024-02-21T16:42:43.487Z,7.6
2024-02-21T16:47:44.042Z,7.5
2024-02-21T16:49:44.729Z,7.5
2024-02-21T16:52:45.899Z,7.5
2024-02-21T16:54:46.618Z,7.4
2024-02-21T16:57:47.193Z,7.3
2024-02-21T16:59:47.790Z,7.2
2024-02-21T17:02:52.302Z,7.2
2024-02-21T17:05:01.212Z,7.2
2024-02-21T17:08:02.520Z,7.1
2024-02-21T17:10:03.239Z,7.0
2024-02-21T17:13:03.850Z,6.9
2024-02-21T17:15:04.430Z,6.9
2024-02-21T17:18:04.994Z,6.9
2024-02-21T17:20:05.784Z,6.8
2024-02-21T17:23:06.658Z,6.7
2024-02-21T17:28:07.726Z,6.5
2024-02-21T17:31:08.258Z,6.4
2024-02-21T17:33:08.847Z,6.3
2024-02-21T17:36:10.515Z,6.1
2024-02-21T17:38:14.145Z,5.9
2024-02-21T17:41:14.832Z,5.7
2024-02-21T17:43:15.541Z,5.5
2024-02-21T17:46:16.155Z,5.2
2024-02-21T17:48:16.838Z,4.9
2024-02-21T17:51:17.910Z,4.7
2024-02-21T17:53:18.577Z,4.4
2024-02-21T17:56:19.506Z,4.5
2024-02-21T17:58:20.206Z,4.7
2024-02-21T18:01:20.811Z,4.9
2024-02-21T18:04:21.544Z,5.3
2024-02-21T18:09:22.256Z,5.6
2024-02-21T18:11:22.839Z,5.8
2024-02-21T18:14:23.580Z,6.2
2024-02-21T18:19:24.218Z,6.4
2024-02-21T18:21:26.992Z,6.6
2024-02-21T18:24:29.197Z,6.5
2024-02-21T18:26:29.719Z,6.5
2024-02-21T18:29:34.609Z,6.4
2024-02-21T18:31:44.245Z,6.2
2024-02-21T18:33:44.954Z,5.9
2024-02-21T18:36:45.497Z,5.5
2024-02-21T18:39:46.089Z,5.2
2024-02-21T18:41:46.635Z,4.9
2024-02-21T18:44:47.367Z,4.8
2024-02-21T18:49:48.208Z,4.7
2024-02-21T18:51:49.044Z,4.8
2024-02-21T18:54:49.677Z,4.9
2024-02-21T18:56:50.227Z,5.2
2024-02-21T18:59:50.820Z,5.3
2024-02-21T19:01:51.384Z,5.4
2024-02-21T19:04:52.310Z,5.6
2024-02-21T19:06:53.248Z,5.6
2024-02-21T19:09:54.092Z,5.7
2024-02-21T19:12:54.636Z,5.7
2024-02-21T19:14:55.236Z,5.7
2024-02-21T19:17:55.849Z,5.8
2024-02-21T19:19:56.590Z,5.9
2024-02-21T19:22:57.391Z,5.9
2024-02-21T19:24:58.051Z,6.0
2024-02-21T19:29:58.603Z,5.2
2024-02-21T19:32:59.163Z,4.7
2024-02-21T19:35:00.034Z,4.5
2024-02-21T19:38:01.016Z,4.4
2024-02-21T19:40:01.845Z,4.4
2024-02-21T19:43:02.435Z,4.8
2024-02-21T19:45:03.014Z,5.1
2024-02-21T19:48:03.655Z,5.2
2024-02-21T19:51:04.962Z,5.7
2024-02-21T19:53:05.670Z,5.7
2024-02-21T19:56:06.565Z,5.2
2024-02-21T19:58:07.420Z,4.7
2024-02-21T20:00:08.104Z,4.5
2024-02-21T20:03:08.633Z,4.7
2024-02-21T20:06:09.378Z,5.2
2024-02-21T20:11:10.376Z,6.0
2024-02-21T20:13:11.417Z,6.2
2024-02-21T20:16:11.977Z,6.3
2024-02-21T20:18:12.577Z,6.5
2024-02-21T20:21:13.640Z,6.5
2024-02-21T20:23:14.282Z,6.5
2024-02-21T20:26:14.979Z,6.6
2024-02-21T20:28:15.936Z,6.6
2024-02-21T20:31:16.549Z,6.6
2024-02-21T20:33:17.184Z,6.7
2024-02-21T20:36:17.914Z,6.7
2024-02-21T20:39:18.522Z,6.7
2024-02-21T20:41:19.090Z,6.7
2024-02-21T20:44:19.913Z,6.7
2024-02-21T20:46:20.463Z,6.7
2024-02-21T20:51:21.113Z,6.6
2024-02-21T20:54:21.718Z,6.6
2024-02-21T20:56:22.266Z,6.6
2024-02-21T20:59:22.981Z,6.6
2024-02-21T21:01:23.564Z,6.6
2024-02-21T21:04:24.568Z,6.7
2024-02-21T21:06:25.599Z,6.8
2024-02-21T21:09:26.202Z,6.8
2024-02-21T21:12:26.775Z,6.8
2024-02-21T21:14:27.687Z,6.8
2024-02-21T21:16:28.928Z,6.7
2024-02-21T21:19:29.607Z,6.7
2024-02-21T21:22:30.411Z,6.6
2024-02-21T21:24:31.140Z,6.6
2024-02-21T21:27:31.869Z,6.6
2024-02-21T21:32:32.566Z,6.6
2024-02-21T21:34:33.407Z,6.5
2024-02-21T21:37:34.334Z,6.5
2024-02-21T21:39:34.941Z,6.5
2024-02-21T21:42:35.480Z,6.5
2024-02-21T21:44:36.170Z,6.5
2024-02-21T21:47:36.842Z,6.6
2024-02-21T21:49:37.502Z,6.6
2024-02-21T21:52:38.159Z,6.6
2024-02-21T21:54:38.759Z,6.5
2024-02-21T21:57:39.298Z,6.5
2024-02-21T21:59:39.881Z,6.6
2024-02-21T22:02:40.496Z,6.6
2024-02-21T22:05:41.225Z,6.7
2024-02-21T22:07:41.798Z,6.6
2024-02-21T22:12:42.476Z,6.7
2024-02-21T22:15:43.024Z,6.7
2024-02-21T22:17:43.634Z,6.7
2024-02-21T22:20:44.303Z,6.7
2024-02-21T22:22:44.915Z,6.6
2024-02-21T22:25:45.614Z,6.6
2024-02-21T22:27:46.260Z,6.6
2024-02-21T22:30:46.823Z,6.6
2024-02-21T22:32:47.537Z,6.6
2024-02-21T22:35:48.249Z,6.6
2024-02-21T22:38:48.984Z,6.6
2024-02-21T22:40:49.619Z,6.6
2024-02-21T22:43:50.445Z,6.6
2024-02-21T22:45:51.134Z,6.6
2024-02-21T22:48:51.763Z,6.6
2024-02-21T22:53:52.469Z,6.6
2024-02-21T22:55:53.109Z,6.6
2024-02-21T22:58:53.949Z,6.6
2024-02-21T23:00:54.653Z,6.6
2024-02-21T23:03:55.345Z,6.6
2024-02-21T23:05:56.358Z,6.6
2024-02-21T23:08:56.907Z,6.7
2024-02-21T23:10:57.560Z,6.7
2024-02-21T23:13:58.390Z,6.8
2024-02-21T23:15:59.097Z,6.9
2024-02-21T23:18:59.668Z,6.8
2024-02-21T23:24:00.373Z,6.8
2024-02-21T23:27:00.928Z,6.9
2024-02-21T23:29:01.563Z,6.9
2024-02-21T23:34:02.458Z,6.8
2024-02-21T23:37:03.488Z,6.8
2024-02-21T23:39:04.096Z,6.8
2024-02-21T23:42:04.739Z,6.8
2024-02-21T23:44:05.394Z,6.9
2024-02-21T23:47:06.292Z,7.0
2024-02-21T23:49:07.124Z,7.2
2024-02-21T23:52:07.902Z,7.2
2024-02-21T23:54:08.453Z,7.1
2024-02-21T23:57:09.002Z,7.1
2024-02-21T23:59:09.698Z,7.0
